createdAt,value
2022-10-20T00:00:36.264Z,48.15
2022-10-20T00:03:02.544Z,48.65
2022-10-20T00:05:28.796Z,52.72
2022-10-20T00:07:54.987Z,46.40
2022-10-20T00:10:21.166Z,46.92
2022-10-20T00:12:47.351Z,53.80
2022-10-20T00:15:13.556Z,56.42
2022-10-20T00:17:39.745Z,52.08
2022-10-20T00:20:05.964Z,40.97
2022-10-20T00:22:32.358Z,56.47
2022-10-20T00:24:58.646Z,66.47
2022-10-20T00:27:24.840Z,72.03
2022-10-20T00:29:51.029Z,70.93
2022-10-20T00:32:17.545Z,60.65
2022-10-20T00:34:43.718Z,73.30
2022-10-20T00:37:09.953Z,52.45
2022-10-20T00:39:36.134Z,67.30
2022-10-20T00:42:02.321Z,63.10
2022-10-20T00:44:28.509Z,72.57
2022-10-20T00:46:54.823Z,67.95
2022-10-20T00:49:21.009Z,62.20
2022-10-20T00:51:47.214Z,70.68
2022-10-20T00:54:13.408Z,81.13
2022-10-20T00:56:39.981Z,78.40
2022-10-20T00:59:06.182Z,60.10
2022-10-20T01:01:32.480Z,63.95
2022-10-20T01:03:58.703Z,67.15
2022-10-20T01:06:24.906Z,68.47
2022-10-20T01:08:51.222Z,63.90
2022-10-20T01:11:18.154Z,63.13
2022-10-20T01:13:44.344Z,68.75
2022-10-20T01:16:10.546Z,66.75
2022-10-20T01:18:36.722Z,68.15
2022-10-20T01:21:05.026Z,64.63
2022-10-20T01:23:31.210Z,63.97
2022-10-20T01:25:57.414Z,66.97
2022-10-20T01:28:23.751Z,62.22
2022-10-20T01:30:49.960Z,60.10
2022-10-20T01:33:16.180Z,55.88
2022-10-20T01:35:42.507Z,62.20
2022-10-20T01:38:08.692Z,60.40
2022-10-20T01:40:34.999Z,56.80
2022-10-20T01:43:01.186Z,54.35
2022-10-20T01:45:27.382Z,57.50
2022-10-20T01:47:53.563Z,58.25
2022-10-20T01:50:19.988Z,56.10
2022-10-20T01:52:46.187Z,56.35
2022-10-20T01:55:12.455Z,56.47
2022-10-20T01:57:38.667Z,67.03
2022-10-20T02:00:04.868Z,63.10
2022-10-20T02:02:31.046Z,62.70
2022-10-20T02:04:57.233Z,64.22
2022-10-20T02:07:23.417Z,61.85
2022-10-20T02:09:49.650Z,64.20
2022-10-20T02:12:15.859Z,55.22
2022-10-20T02:14:42.050Z,47.15
2022-10-20T02:17:08.239Z,46.95
2022-10-20T02:19:34.430Z,47.28
2022-10-20T02:22:00.617Z,45.70
2022-10-20T02:24:27.056Z,48.00
2022-10-20T02:26:53.235Z,51.28
2022-10-20T02:29:22.612Z,55.95
2022-10-20T02:31:48.797Z,57.65
2022-10-20T02:34:15.020Z,56.28
2022-10-20T02:36:41.206Z,54.55
2022-10-20T02:39:07.442Z,54.50
2022-10-20T02:41:33.666Z,55.65
2022-10-20T02:43:59.878Z,56.30
2022-10-20T02:46:26.083Z,60.45
2022-10-20T02:48:52.268Z,73.10
2022-10-20T02:51:18.670Z,71.70
2022-10-20T02:53:44.858Z,74.43
2022-10-20T02:56:11.057Z,80.57
2022-10-20T02:58:37.250Z,73.78
2022-10-20T03:01:03.434Z,72.68
2022-10-20T03:03:29.638Z,67.10
2022-10-20T03:05:55.835Z,73.00
2022-10-20T03:08:22.356Z,83.10
2022-10-20T03:10:48.559Z,66.80
2022-10-20T03:13:15.559Z,86.07
2022-10-20T03:15:41.769Z,84.30
2022-10-20T03:18:07.964Z,72.30
2022-10-20T03:20:34.200Z,76.00
2022-10-20T03:23:00.387Z,62.50
2022-10-20T03:25:26.594Z,70.68
2022-10-20T03:27:52.770Z,57.55
2022-10-20T03:30:18.964Z,55.00
2022-10-20T03:32:45.155Z,76.35
2022-10-20T03:35:11.347Z,77.82
2022-10-20T03:37:37.540Z,71.70
2022-10-20T03:40:03.740Z,78.18
2022-10-20T03:42:29.927Z,66.82
2022-10-20T03:44:56.102Z,76.85
2022-10-20T03:47:22.301Z,91.32
2022-10-20T03:49:48.498Z,91.65
2022-10-20T03:52:14.681Z,100.68
2022-10-20T03:54:40.966Z,55.13
2022-10-20T03:57:08.034Z,67.72
2022-10-20T03:59:34.263Z,71.50
2022-10-20T04:02:00.550Z,78.28
2022-10-20T04:04:26.805Z,70.03
2022-10-20T04:06:52.983Z,79.22
2022-10-20T04:09:19.198Z,76.40
2022-10-20T04:11:45.403Z,67.68
2022-10-20T04:14:11.635Z,63.88
2022-10-20T04:16:37.872Z,64.28
2022-10-20T04:19:04.671Z,63.38
2022-10-20T04:21:30.871Z,67.75
2022-10-20T04:23:57.074Z,56.90
2022-10-20T04:26:23.267Z,46.67
2022-10-20T04:28:49.471Z,48.95
2022-10-20T04:31:15.650Z,51.03
2022-10-20T04:33:41.855Z,47.83
2022-10-20T04:36:08.063Z,56.97
2022-10-20T04:38:34.385Z,43.67
2022-10-20T04:41:03.364Z,69.78
2022-10-20T04:43:30.502Z,67.30
2022-10-20T04:45:59.909Z,59.95
2022-10-20T04:48:28.816Z,60.53
2022-10-20T04:50:54.987Z,43.33
2022-10-20T04:53:21.158Z,62.63
2022-10-20T04:55:47.345Z,58.08
2022-10-20T04:58:13.529Z,57.92
2022-10-20T05:00:39.710Z,56.60
2022-10-20T05:03:05.915Z,69.85
2022-10-20T05:05:32.115Z,57.47
2022-10-20T05:07:58.301Z,52.33
2022-10-20T05:10:24.507Z,58.08
2022-10-20T05:12:50.710Z,53.20
2022-10-20T05:15:16.932Z,51.20
2022-10-20T05:17:43.114Z,50.33
2022-10-20T05:20:09.302Z,51.40
2022-10-20T05:22:35.793Z,47.60
2022-10-20T05:25:24.554Z,49.60
2022-10-20T05:27:48.433Z,52.25
2022-10-20T05:30:14.637Z,57.25
2022-10-20T05:32:40.818Z,54.17
2022-10-20T05:35:07.008Z,56.97
2022-10-20T05:37:33.226Z,51.80
2022-10-20T05:40:02.692Z,47.92
2022-10-20T05:42:28.883Z,52.10
2022-10-20T05:44:56.124Z,49.42
2022-10-20T05:47:22.321Z,50.77
2022-10-20T05:49:48.513Z,54.95
2022-10-20T05:52:14.820Z,53.00
2022-10-20T05:54:41.301Z,50.97
2022-10-20T05:57:07.493Z,48.60
2022-10-20T05:59:33.684Z,54.72
2022-10-20T06:01:59.899Z,53.70
2022-10-20T06:04:28.041Z,54.22
2022-10-20T06:06:54.352Z,53.10
2022-10-20T06:09:20.533Z,58.78
2022-10-20T06:11:46.748Z,58.95
2022-10-20T06:14:12.959Z,59.38
2022-10-20T06:16:39.232Z,61.30
2022-10-20T06:19:06.614Z,64.18
2022-10-20T06:21:32.941Z,57.15
2022-10-20T06:23:59.523Z,67.28
2022-10-20T06:26:25.775Z,65.70
2022-10-20T06:28:51.964Z,69.35
2022-10-20T06:31:18.171Z,62.75
2022-10-20T06:33:44.350Z,71.13
2022-10-20T06:36:10.667Z,68.15
2022-10-20T06:38:36.914Z,64.82
2022-10-20T06:41:03.119Z,62.03
2022-10-20T06:43:29.311Z,51.45
2022-10-20T06:45:55.647Z,54.35
2022-10-20T06:48:21.898Z,56.05
2022-10-20T06:50:48.087Z,57.55
2022-10-20T06:53:14.335Z,53.92
2022-10-20T06:55:40.728Z,56.78
2022-10-20T06:58:07.019Z,58.60
2022-10-20T07:00:33.398Z,61.58
2022-10-20T07:02:59.676Z,63.47
2022-10-20T07:05:25.943Z,60.75
2022-10-20T07:07:52.208Z,58.85
2022-10-20T07:10:18.472Z,59.65
2022-10-20T07:12:44.755Z,57.17
2022-10-20T07:15:11.014Z,56.78
2022-10-20T07:17:37.265Z,60.00
2022-10-20T07:20:03.521Z,61.67
2022-10-20T07:22:29.832Z,56.38
2022-10-20T07:24:56.089Z,56.10
2022-10-20T07:27:22.335Z,57.08
2022-10-20T07:29:48.583Z,63.35
2022-10-20T07:32:14.906Z,60.58
2022-10-20T07:34:41.171Z,57.95
2022-10-20T07:37:07.414Z,58.60
2022-10-20T07:39:33.677Z,53.28
2022-10-20T07:41:59.931Z,57.30
2022-10-20T07:44:26.208Z,53.08
2022-10-20T07:46:52.506Z,58.42
2022-10-20T07:52:05.026Z,52.00
2022-10-20T07:54:31.790Z,51.25
2022-10-20T07:56:58.050Z,55.95
2022-10-20T07:59:24.414Z,54.38
2022-10-20T08:01:52.480Z,64.00
2022-10-20T08:04:19.956Z,67.43
2022-10-20T08:06:47.167Z,64.50
2022-10-20T08:09:13.425Z,62.53
2022-10-20T08:11:39.679Z,60.03
2022-10-20T08:14:06.039Z,50.33
2022-10-20T08:16:50.130Z,54.15
2022-10-20T08:19:17.960Z,51.35
2022-10-20T08:21:44.221Z,55.75
2022-10-20T08:24:10.721Z,81.05
2022-10-20T08:26:36.981Z,63.55
2022-10-20T08:29:03.302Z,54.75
2022-10-20T08:31:29.545Z,54.25
2022-10-20T08:33:56.802Z,57.08
2022-10-20T08:36:23.069Z,58.63
2022-10-20T08:38:49.364Z,58.80
2022-10-20T08:41:15.621Z,68.18
2022-10-20T08:43:42.014Z,79.40
2022-10-20T08:46:08.327Z,63.50
2022-10-20T08:48:34.587Z,54.80
2022-10-20T08:51:00.843Z,55.55
2022-10-20T08:53:27.140Z,57.80
2022-10-20T08:55:53.396Z,49.58
2022-10-20T08:58:19.647Z,61.20
2022-10-20T09:00:45.989Z,50.47
2022-10-20T09:03:12.301Z,54.13
2022-10-20T09:05:38.546Z,47.90
2022-10-20T09:08:04.800Z,48.95
2022-10-20T09:10:31.131Z,71.38
2022-10-20T09:12:57.434Z,66.65
2022-10-20T09:15:23.750Z,64.43
2022-10-20T09:17:49.997Z,43.03
2022-10-20T09:20:16.255Z,46.30
2022-10-20T09:22:42.517Z,43.28
2022-10-20T09:25:08.765Z,52.38
2022-10-20T09:27:35.240Z,52.60
2022-10-20T09:30:01.821Z,53.65
2022-10-20T09:32:45.601Z,47.38
2022-10-20T09:35:13.097Z,44.88
2022-10-20T09:37:39.367Z,54.22
2022-10-20T09:40:05.618Z,53.22
2022-10-20T09:42:31.883Z,56.00
2022-10-20T09:44:58.132Z,66.47
2022-10-20T09:47:24.436Z,66.32
2022-10-20T09:49:50.689Z,64.78
2022-10-20T09:52:17.024Z,65.55
2022-10-20T09:54:43.273Z,49.22
2022-10-20T09:57:09.556Z,57.50
2022-10-20T09:59:35.843Z,60.03
2022-10-20T10:02:02.087Z,51.40
2022-10-20T10:04:28.343Z,59.58
2022-10-20T10:06:54.582Z,74.78
2022-10-20T10:09:20.878Z,61.95
2022-10-20T10:11:47.149Z,48.88
2022-10-20T10:14:13.397Z,52.13
2022-10-20T10:16:40.538Z,51.33
2022-10-20T10:19:06.836Z,49.63
2022-10-20T10:21:33.149Z,49.00
2022-10-20T10:23:59.422Z,69.53
2022-10-20T10:26:25.666Z,71.20
2022-10-20T10:28:51.944Z,53.70
2022-10-20T10:31:18.194Z,49.45
2022-10-20T10:33:44.483Z,53.65
2022-10-20T10:36:10.736Z,52.15
2022-10-20T10:38:37.009Z,52.45
2022-10-20T10:41:03.272Z,69.47
2022-10-20T10:43:29.850Z,76.90
2022-10-20T10:45:56.272Z,74.28
2022-10-20T10:48:22.519Z,68.88
2022-10-20T10:50:48.774Z,72.78
2022-10-20T10:53:15.031Z,57.58
2022-10-20T10:55:48.869Z,60.97
2022-10-20T10:58:15.729Z,62.00
2022-10-20T11:00:42.129Z,57.17
2022-10-20T11:03:08.415Z,51.55
2022-10-20T11:05:34.729Z,51.40
2022-10-20T11:08:01.214Z,47.00
2022-10-20T11:10:27.597Z,47.70
2022-10-20T11:12:53.864Z,42.10
2022-10-20T11:15:20.123Z,46.55
2022-10-20T11:17:46.376Z,46.30
2022-10-20T11:20:12.771Z,46.05
2022-10-20T11:22:39.083Z,53.30
2022-10-20T11:25:05.342Z,57.22
2022-10-20T11:27:31.632Z,50.90
2022-10-20T11:30:04.352Z,51.83
2022-10-20T11:32:30.693Z,54.97
2022-10-20T11:34:57.682Z,54.50
2022-10-20T11:37:23.943Z,49.92
2022-10-20T11:39:50.219Z,51.28
2022-10-20T11:42:16.481Z,57.88
2022-10-20T11:44:42.760Z,51.35
2022-10-20T11:47:09.019Z,49.42
2022-10-20T11:49:35.396Z,52.83
2022-10-20T11:52:01.677Z,50.22
2022-10-20T11:54:27.940Z,50.30
2022-10-20T11:56:54.203Z,51.10
2022-10-20T11:59:20.597Z,55.38
2022-10-20T12:01:46.902Z,54.58
2022-10-20T12:04:13.195Z,53.47
2022-10-20T12:06:39.587Z,54.50
2022-10-20T12:09:05.890Z,56.42
2022-10-20T12:11:32.156Z,71.75
2022-10-20T12:13:58.688Z,60.83
2022-10-20T12:16:24.941Z,66.85
2022-10-20T12:18:51.239Z,65.85
2022-10-20T12:21:17.521Z,66.97
2022-10-20T12:23:44.064Z,68.72
2022-10-20T12:26:10.329Z,64.35
2022-10-20T12:28:36.601Z,79.75
2022-10-20T12:31:02.870Z,92.03
2022-10-20T12:33:29.134Z,84.70
2022-10-20T12:35:55.392Z,84.28
2022-10-20T12:41:12.183Z,72.22
2022-10-20T12:43:38.461Z,75.90
2022-10-20T12:46:05.964Z,78.43
2022-10-20T12:48:32.316Z,75.78
2022-10-20T12:50:58.571Z,76.95
2022-10-20T12:53:26.584Z,81.63
2022-10-20T12:58:30.810Z,66.35
2022-10-20T13:01:00.333Z,57.75
2022-10-20T13:03:26.625Z,65.30
2022-10-20T13:05:52.925Z,73.97
2022-10-20T13:08:19.188Z,70.20
2022-10-20T13:10:45.449Z,65.90
2022-10-20T13:13:11.701Z,72.93
2022-10-20T13:15:38.744Z,64.80
2022-10-20T13:18:05.228Z,67.28
2022-10-20T13:20:31.474Z,68.03
2022-10-20T13:22:57.723Z,70.18
2022-10-20T13:25:24.005Z,69.40
2022-10-20T13:27:50.361Z,72.15
2022-10-20T13:30:16.636Z,68.32
2022-10-20T13:32:53.902Z,76.43
2022-10-20T13:35:29.203Z,68.25
2022-10-20T13:37:55.945Z,62.13
2022-10-20T13:40:23.919Z,57.67
2022-10-20T13:42:50.574Z,56.92
2022-10-20T13:45:16.833Z,55.55
2022-10-20T13:47:43.075Z,52.25
2022-10-20T13:50:09.365Z,54.17
2022-10-20T13:52:35.967Z,61.40
2022-10-20T13:55:02.448Z,58.65
2022-10-20T13:57:29.001Z,69.07
2022-10-20T13:59:57.387Z,60.55
2022-10-20T14:02:23.685Z,56.85
2022-10-20T14:04:49.943Z,51.72
2022-10-20T14:07:17.477Z,49.88
2022-10-20T14:09:46.802Z,49.90
2022-10-20T14:12:14.699Z,52.60
2022-10-20T14:14:40.954Z,50.25
2022-10-20T14:17:07.247Z,1999.90
2022-10-20T14:19:33.625Z,1999.90
2022-10-20T14:21:59.930Z,1999.90
2022-10-20T14:24:26.254Z,1999.90
2022-10-20T14:26:52.571Z,1999.90
2022-10-20T14:29:18.900Z,1514.25
2022-10-20T14:31:45.154Z,1999.90
2022-10-20T14:34:11.407Z,1999.90
2022-10-20T14:36:40.040Z,56.13
2022-10-20T14:39:09.648Z,51.30
2022-10-20T14:41:35.914Z,56.90
2022-10-20T14:44:06.430Z,59.70
2022-10-20T14:46:34.193Z,63.85
2022-10-20T14:49:00.438Z,64.20
2022-10-20T14:51:26.682Z,77.63
2022-10-20T14:53:52.935Z,78.30
2022-10-20T14:56:22.157Z,77.45
2022-10-20T14:58:49.204Z,79.28
2022-10-20T15:01:15.494Z,77.18
2022-10-20T15:03:41.883Z,75.75
2022-10-20T15:06:08.319Z,87.20
2022-10-20T15:08:34.587Z,73.45
2022-10-20T15:11:03.975Z,81.45
2022-10-20T15:13:30.223Z,74.05
2022-10-20T15:15:56.519Z,52.65
2022-10-20T15:18:23.939Z,53.17
2022-10-20T15:20:50.220Z,55.22
2022-10-20T15:23:16.459Z,66.07
2022-10-20T15:25:43.706Z,64.60
2022-10-20T15:28:09.965Z,70.07
2022-10-20T15:30:36.258Z,52.50
2022-10-20T15:33:02.512Z,55.92
2022-10-20T15:35:30.890Z,62.15
2022-10-20T15:37:57.156Z,59.83
2022-10-20T15:40:23.424Z,56.70
2022-10-20T15:42:49.668Z,54.55
2022-10-20T15:45:15.917Z,60.08
2022-10-20T15:47:42.210Z,69.35
2022-10-20T15:50:08.455Z,77.95
2022-10-20T15:52:37.033Z,76.68
2022-10-20T15:55:03.564Z,56.33
2022-10-20T15:57:30.564Z,51.08
2022-10-20T15:59:56.825Z,64.93
2022-10-20T16:02:23.145Z,61.75
2022-10-20T16:04:49.409Z,62.38
2022-10-20T16:07:15.685Z,58.00
2022-10-20T16:09:41.948Z,58.70
2022-10-20T16:12:08.196Z,52.75
2022-10-20T16:14:34.622Z,62.25
2022-10-20T16:17:01.066Z,62.00
2022-10-20T16:19:27.326Z,61.88
2022-10-20T16:21:53.591Z,56.03
2022-10-20T16:24:19.851Z,52.13
2022-10-20T16:26:46.105Z,54.10
2022-10-20T16:29:12.368Z,55.40
2022-10-20T16:31:38.653Z,56.90
2022-10-20T16:34:04.911Z,61.90
2022-10-20T16:36:34.348Z,61.90
2022-10-20T16:39:00.854Z,65.20
2022-10-20T16:41:27.156Z,67.57
2022-10-20T16:43:55.420Z,67.57
2022-10-20T16:46:25.091Z,67.30
2022-10-20T16:48:51.360Z,56.03
2022-10-20T16:51:17.659Z,52.20
2022-10-20T16:53:43.953Z,56.28
2022-10-20T16:56:10.641Z,55.50
2022-10-20T16:58:38.347Z,53.97
2022-10-20T17:01:06.043Z,53.00
2022-10-20T17:03:32.426Z,53.13
2022-10-20T17:05:58.729Z,57.33
2022-10-20T17:08:25.851Z,50.97
2022-10-20T17:10:53.369Z,50.43
2022-10-20T17:13:19.618Z,47.03
2022-10-20T17:15:45.882Z,48.65
2022-10-20T17:18:12.180Z,46.22
2022-10-20T17:20:38.430Z,46.00
2022-10-20T17:23:04.873Z,45.70
2022-10-20T17:25:31.123Z,48.13
2022-10-20T17:27:58.298Z,47.65
2022-10-20T17:30:26.447Z,55.60
2022-10-20T17:35:18.885Z,46.55
2022-10-20T17:37:45.145Z,49.28
2022-10-20T17:40:11.487Z,45.58
2022-10-20T17:42:38.113Z,45.85
2022-10-20T17:45:04.588Z,46.78
2022-10-20T17:47:30.892Z,47.55
2022-10-20T17:49:57.177Z,47.17
2022-10-20T17:52:23.459Z,49.22
2022-10-20T17:54:49.736Z,47.47
2022-10-20T17:57:15.980Z,47.33
2022-10-20T17:59:52.493Z,50.15
2022-10-20T18:02:23.491Z,45.40
2022-10-20T18:04:49.921Z,45.17
2022-10-20T18:07:16.180Z,47.63
2022-10-20T18:09:43.331Z,43.35
2022-10-20T18:12:09.514Z,45.30
2022-10-20T18:14:35.778Z,46.22
2022-10-20T18:17:02.034Z,44.97
2022-10-20T18:19:28.394Z,44.05
2022-10-20T18:21:54.689Z,42.83
2022-10-20T18:24:20.942Z,44.30
2022-10-20T18:26:47.403Z,45.03
2022-10-20T18:29:13.664Z,44.60
2022-10-20T18:31:39.914Z,44.42
2022-10-20T18:34:07.146Z,49.13
2022-10-20T18:36:33.632Z,43.67
2022-10-20T18:41:50.218Z,41.67
2022-10-20T18:44:16.630Z,45.90
2022-10-20T18:46:42.996Z,49.50
2022-10-20T18:49:09.238Z,44.50
2022-10-20T18:51:35.676Z,45.78
2022-10-20T18:54:01.923Z,54.83
2022-10-20T18:56:28.170Z,54.28
2022-10-20T18:58:54.410Z,54.83
2022-10-20T19:01:20.737Z,49.30
2022-10-20T19:03:47.097Z,48.92
2022-10-20T19:06:13.403Z,52.30
2022-10-20T19:08:39.761Z,56.38
2022-10-20T19:11:06.047Z,60.97
2022-10-20T19:13:32.504Z,59.63
2022-10-20T19:15:58.774Z,68.57
2022-10-20T19:18:25.030Z,63.28
2022-10-20T19:20:53.327Z,65.18
2022-10-20T19:23:19.580Z,54.55
2022-10-20T19:25:47.267Z,54.85
2022-10-20T19:28:13.563Z,54.67
2022-10-20T19:30:39.831Z,48.75
2022-10-20T19:33:06.094Z,54.33
2022-10-20T19:35:32.367Z,51.53
2022-10-20T19:37:58.620Z,54.40
2022-10-20T19:40:27.645Z,52.58
2022-10-20T19:42:54.758Z,48.47
2022-10-20T19:45:21.002Z,48.70
2022-10-20T19:47:47.264Z,55.80
2022-10-20T19:50:13.518Z,59.38
2022-10-20T19:52:40.016Z,49.97
2022-10-20T19:55:06.431Z,59.20
2022-10-20T19:57:32.860Z,53.85
2022-10-20T19:59:59.356Z,52.63
2022-10-20T20:02:25.611Z,52.38
2022-10-20T20:04:51.889Z,56.58
2022-10-20T20:09:51.660Z,60.85
2022-10-20T20:12:18.227Z,56.08
2022-10-20T20:14:44.642Z,60.78
2022-10-20T20:17:11.222Z,64.78
2022-10-20T20:19:37.595Z,66.70
2022-10-20T20:22:03.910Z,57.30
2022-10-20T20:24:30.169Z,51.20
2022-10-20T20:26:58.243Z,52.85
2022-10-20T20:31:50.741Z,54.03
2022-10-20T20:34:17.017Z,55.30
2022-10-20T20:36:43.283Z,49.13
2022-10-20T20:39:09.542Z,55.70
2022-10-20T20:41:37.385Z,54.35
2022-10-20T20:44:07.930Z,51.00
2022-10-20T20:46:36.011Z,56.60
2022-10-20T20:49:02.319Z,52.85
2022-10-20T20:51:33.843Z,53.85
2022-10-20T20:54:00.484Z,55.35
2022-10-20T20:56:27.884Z,48.90
2022-10-20T20:58:55.271Z,46.70
2022-10-20T21:01:21.947Z,56.20
2022-10-20T21:03:48.327Z,49.88
2022-10-20T21:06:14.595Z,48.33
2022-10-20T21:08:40.927Z,46.33
2022-10-20T21:11:07.200Z,48.85
2022-10-20T21:13:33.458Z,47.60
2022-10-20T21:15:59.705Z,49.35
2022-10-20T21:18:25.954Z,51.08
2022-10-20T21:20:52.250Z,49.03
2022-10-20T21:23:18.786Z,52.15
2022-10-20T21:25:45.026Z,53.50
2022-10-20T21:28:11.449Z,48.17
2022-10-20T21:30:37.705Z,53.08
2022-10-20T21:33:03.968Z,50.25
2022-10-20T21:35:30.235Z,56.08
2022-10-20T21:37:56.487Z,51.72
2022-10-20T21:40:22.756Z,52.15
2022-10-20T21:42:49.011Z,53.28
2022-10-20T21:45:18.255Z,55.88
2022-10-20T21:47:45.410Z,53.03
2022-10-20T21:50:11.665Z,56.60
2022-10-20T21:52:39.168Z,49.58
2022-10-20T21:55:05.631Z,51.58
2022-10-20T21:57:31.882Z,49.45
2022-10-20T21:59:58.126Z,49.60
2022-10-20T22:02:24.382Z,47.92
2022-10-20T22:04:50.626Z,49.30
2022-10-20T22:07:16.882Z,51.83
2022-10-20T22:09:43.150Z,47.30
2022-10-20T22:12:09.398Z,51.05
2022-10-20T22:14:35.687Z,48.88
2022-10-20T22:17:02.014Z,48.53
2022-10-20T22:19:28.267Z,46.75
2022-10-20T22:21:54.729Z,48.30
2022-10-20T22:24:21.063Z,47.30
2022-10-20T22:26:47.325Z,49.90
2022-10-20T22:29:13.595Z,47.45
2022-10-20T22:31:39.858Z,47.97
2022-10-20T22:34:06.311Z,51.20
2022-10-20T22:36:32.558Z,49.63
2022-10-20T22:39:00.378Z,48.60
2022-10-20T22:41:26.670Z,48.78
2022-10-20T22:43:52.927Z,47.22
2022-10-20T22:46:19.191Z,52.33
2022-10-20T22:48:46.258Z,49.70
2022-10-20T22:51:12.526Z,51.03
2022-10-20T22:53:38.785Z,50.85
2022-10-20T22:56:05.450Z,50.88
2022-10-20T22:58:31.690Z,50.50
2022-10-20T23:00:58.022Z,48.88
2022-10-20T23:03:24.299Z,45.33
2022-10-20T23:05:50.581Z,45.38
2022-10-20T23:08:16.834Z,49.45
2022-10-20T23:10:43.083Z,46.85
2022-10-20T23:13:09.345Z,47.72
2022-10-20T23:15:35.608Z,47.42
2022-10-20T23:18:01.908Z,50.78
2022-10-20T23:20:28.160Z,46.60
2022-10-20T23:22:54.457Z,48.53
2022-10-20T23:25:20.716Z,51.80
2022-10-20T23:27:46.972Z,50.28
2022-10-20T23:30:13.231Z,49.75
2022-10-20T23:32:39.472Z,52.05
2022-10-20T23:35:05.733Z,49.33
2022-10-20T23:37:32.057Z,54.08
2022-10-20T23:39:58.384Z,49.95
2022-10-20T23:42:24.648Z,52.10
2022-10-20T23:44:50.906Z,50.10
2022-10-20T23:47:17.157Z,58.05
2022-10-20T23:49:43.407Z,49.85
2022-10-20T23:52:09.665Z,52.97
2022-10-20T23:54:35.914Z,49.13
2022-10-20T23:57:02.566Z,49.90
2022-10-20T23:59:28.818Z,55.35
